createdAt,value
2022-09-24T00:00:47.678Z,69.95
2022-09-24T00:01:47.664Z,69.95
2022-09-24T00:02:47.665Z,69.85
2022-09-24T00:03:47.643Z,69.79
2022-09-24T00:04:47.637Z,70.19
2022-09-24T00:05:47.665Z,69.99
2022-09-24T00:06:47.616Z,69.89
2022-09-24T00:07:47.607Z,70.39
2022-09-24T00:08:47.592Z,70.19
2022-09-24T00:09:47.584Z,70.09
2022-09-24T00:10:47.593Z,70.09
2022-09-24T00:11:47.576Z,69.99
2022-09-24T00:12:47.565Z,69.55
2022-09-24T00:13:47.544Z,69.55
2022-09-24T00:14:47.539Z,69.55
2022-09-24T00:15:47.544Z,69.68
2022-09-24T00:16:47.511Z,69.68
2022-09-24T00:17:47.503Z,69.68
2022-09-24T00:18:47.487Z,69.89
2022-09-24T00:19:47.495Z,69.68
2022-09-24T00:20:47.466Z,69.55
2022-09-24T00:21:47.460Z,69.55
2022-09-24T00:22:47.450Z,69.65
2022-09-24T00:23:47.436Z,69.55
2022-09-24T00:24:47.423Z,69.45
2022-09-24T00:25:47.420Z,69.65
2022-09-24T00:26:47.413Z,69.45
2022-09-24T00:27:47.418Z,69.45
2022-09-24T00:28:47.388Z,69.35
2022-09-24T00:29:47.375Z,69.35
2022-09-24T00:30:47.375Z,69.25
2022-09-24T00:31:47.353Z,69.35
2022-09-24T00:32:47.344Z,69.25
2022-09-24T00:33:47.337Z,69.05
2022-09-24T00:34:47.323Z,69.05
2022-09-24T00:35:47.313Z,69.15
2022-09-24T00:36:47.306Z,69.01
2022-09-24T00:37:47.291Z,68.71
2022-09-24T00:38:47.289Z,68.61
2022-09-24T00:39:47.282Z,68.21
2022-09-24T00:40:47.262Z,68.24
2022-09-24T00:41:47.250Z,68.44
2022-09-24T00:42:47.250Z,68.65
2022-09-24T00:43:47.232Z,68.34
2022-09-24T00:44:47.240Z,68.04
2022-09-24T00:45:47.211Z,68.48
2022-09-24T00:46:47.204Z,69.11
2022-09-24T00:47:47.191Z,69.18
2022-09-24T00:48:47.179Z,68.98
2022-09-24T00:49:47.173Z,68.98
2022-09-24T00:50:47.163Z,68.88
2022-09-24T00:51:47.152Z,68.77
2022-09-24T00:52:47.149Z,68.77
2022-09-24T00:53:47.127Z,68.54
2022-09-24T00:54:47.123Z,68.34
2022-09-24T00:55:47.104Z,68.24
2022-09-24T00:56:47.104Z,67.91
2022-09-24T00:57:47.100Z,68.04
2022-09-24T00:58:47.086Z,68.04
2022-09-24T00:59:47.065Z,68.88
2022-09-24T01:00:47.059Z,68.65
2022-09-24T01:01:47.057Z,68.54
2022-09-24T01:02:47.038Z,68.24
2022-09-24T01:03:47.028Z,68.04
2022-09-24T01:04:47.017Z,67.97
2022-09-24T01:05:47.006Z,68.17
2022-09-24T01:06:47.001Z,68.37
2022-09-24T01:07:46.982Z,68.48
2022-09-24T01:08:46.971Z,69.11
2022-09-24T01:09:46.971Z,69.21
2022-09-24T01:10:46.952Z,69.31
2022-09-24T01:11:46.939Z,69.82
2022-09-24T01:12:46.934Z,69.52
2022-09-24T01:13:46.955Z,69.62
2022-09-24T01:14:46.926Z,69.62
2022-09-24T01:15:46.899Z,69.62
2022-09-24T01:16:46.891Z,70.02
2022-09-24T01:17:46.882Z,70.12
2022-09-24T01:18:46.867Z,70.12
2022-09-24T01:19:46.862Z,70.32
2022-09-24T01:20:46.850Z,70.12
2022-09-24T01:21:46.866Z,70.32
2022-09-24T01:22:46.854Z,70.73
2022-09-24T01:23:46.823Z,70.42
2022-09-24T01:24:46.820Z,70.42
2022-09-24T01:25:46.812Z,70.42
2022-09-24T01:26:46.787Z,70.86
2022-09-24T01:27:46.792Z,71.4
2022-09-24T01:28:46.769Z,71.7
2022-09-24T01:29:46.769Z,71.7
2022-09-24T01:30:46.750Z,72.24
2022-09-24T01:31:46.735Z,72.75
2022-09-24T01:32:46.729Z,72.95
2022-09-24T01:33:46.740Z,72.81
2022-09-24T01:34:46.705Z,72.71
2022-09-24T01:35:46.696Z,73.02
2022-09-24T01:36:46.689Z,72.81
2022-09-24T01:37:46.686Z,72.91
2022-09-24T01:38:46.666Z,73.32
2022-09-24T01:39:46.662Z,73.02
2022-09-24T01:40:46.643Z,73.62
2022-09-24T01:41:46.648Z,73.66
2022-09-24T01:42:46.635Z,74.37
2022-09-24T01:43:46.617Z,74.46
2022-09-24T01:44:46.609Z,74.57
2022-09-24T01:45:46.589Z,74.22
2022-09-24T01:46:46.581Z,74.09
2022-09-24T01:47:46.574Z,73.49
2022-09-24T01:48:46.567Z,73.58
2022-09-24T01:49:46.570Z,73.05
2022-09-24T01:50:46.594Z,73.05
2022-09-24T01:51:46.529Z,73.35
2022-09-24T01:52:46.523Z,73.69
2022-09-24T01:53:46.554Z,73.93
2022-09-24T01:54:46.500Z,74.77
2022-09-24T01:55:46.489Z,75.41
2022-09-24T01:56:46.486Z,75.81
2022-09-24T01:57:46.465Z,76.22
2022-09-24T01:58:46.464Z,75.61
2022-09-24T01:59:46.452Z,75.61
2022-09-24T02:00:46.433Z,74.77
2022-09-24T02:01:46.429Z,74.6
2022-09-24T02:02:46.416Z,75.31
2022-09-24T02:03:46.405Z,75.31
2022-09-24T02:04:46.407Z,75.92
2022-09-24T02:05:46.387Z,76.22
2022-09-24T02:06:46.374Z,75.61
2022-09-24T02:07:46.369Z,76.12
2022-09-24T02:08:46.347Z,76.62
2022-09-24T02:09:46.356Z,75.41
2022-09-24T02:10:46.331Z,75.17
2022-09-24T02:11:46.333Z,75.21
2022-09-24T02:12:46.305Z,75.85
2022-09-24T02:13:46.303Z,75.95
2022-09-24T02:14:46.283Z,76.56
2022-09-24T02:15:46.322Z,76.42
2022-09-24T02:16:46.275Z,76.02
2022-09-24T02:17:46.250Z,75.61
2022-09-24T02:18:46.245Z,75.48
2022-09-24T02:19:46.236Z,74.87
2022-09-24T02:20:46.218Z,74.46
2022-09-24T02:21:46.211Z,75.17
2022-09-24T02:22:46.204Z,74.57
2022-09-24T02:23:46.202Z,74.33
2022-09-24T02:24:46.184Z,73.89
2022-09-24T02:25:46.196Z,73.58
2022-09-24T02:26:46.159Z,73.38
2022-09-24T02:27:46.155Z,73.38
2022-09-24T02:28:46.134Z,73.38
2022-09-24T02:29:46.120Z,73.28
2022-09-24T02:30:46.137Z,73.28
2022-09-24T02:31:46.110Z,73.18
2022-09-24T02:32:46.089Z,73.58
2022-09-24T02:33:46.089Z,73.69
2022-09-24T02:34:46.072Z,73.58
2022-09-24T02:35:46.061Z,73.99
2022-09-24T02:36:46.054Z,73.79
2022-09-24T02:37:46.041Z,73.49
2022-09-24T02:38:46.037Z,73.49
2022-09-24T02:39:46.017Z,73.38
2022-09-24T02:40:46.008Z,73.58
2022-09-24T02:41:46.001Z,73.28
2022-09-24T02:42:45.985Z,73.38
2022-09-24T02:43:45.997Z,72.98
2022-09-24T02:44:45.969Z,72.54
2022-09-24T02:45:45.957Z,72.14
2022-09-24T02:46:45.946Z,72.11
2022-09-24T02:47:45.937Z,71.7
2022-09-24T02:48:45.930Z,71.17
2022-09-24T02:49:45.919Z,70.97
2022-09-24T02:50:45.896Z,70.56
2022-09-24T02:51:45.890Z,70.46
2022-09-24T02:52:45.885Z,69.92
2022-09-24T02:53:45.864Z,69.95
2022-09-24T02:54:45.859Z,70.59
2022-09-24T02:55:45.847Z,71.13
2022-09-24T02:56:45.841Z,71.77
2022-09-24T02:57:45.823Z,72.17
2022-09-24T02:58:45.819Z,72.21
2022-09-24T02:59:45.808Z,72.41
2022-09-24T03:00:45.791Z,72.61
2022-09-24T03:01:45.779Z,72.41
2022-09-24T03:02:45.766Z,72.21
2022-09-24T03:03:45.758Z,72.11
2022-09-24T03:04:45.763Z,72.24
2022-09-24T03:05:45.738Z,72.44
2022-09-24T03:06:45.725Z,72.24
2022-09-24T03:07:45.714Z,72.21
2022-09-24T03:08:45.711Z,71.91
2022-09-24T03:09:45.700Z,71.64
2022-09-24T03:10:45.692Z,71.84
2022-09-24T03:11:45.678Z,71.94
2022-09-24T03:12:45.680Z,72.28
2022-09-24T03:13:45.654Z,72.68
2022-09-24T03:14:45.645Z,72.55
2022-09-24T03:15:45.634Z,72.34
2022-09-24T03:16:45.622Z,72.14
2022-09-24T03:17:45.608Z,72.04
2022-09-24T03:18:45.632Z,72.34
2022-09-24T03:19:45.594Z,72.14
2022-09-24T03:20:45.579Z,72.44
2022-09-24T03:21:45.569Z,72.14
2022-09-24T03:22:45.565Z,72.58
2022-09-24T03:23:45.556Z,72.28
2022-09-24T03:24:45.538Z,72.38
2022-09-24T03:25:45.526Z,73.08
2022-09-24T03:26:45.521Z,72.99
2022-09-24T03:27:45.506Z,72.88
2022-09-24T03:28:45.492Z,72.55
2022-09-24T03:29:45.488Z,72.34
2022-09-24T03:30:45.511Z,72.34
2022-09-24T03:31:45.469Z,72.24
2022-09-24T03:32:45.454Z,72.04
2022-09-24T03:33:45.446Z,72.34
2022-09-24T03:34:45.427Z,72.44
2022-09-24T03:35:45.420Z,72.58
2022-09-24T03:36:45.427Z,72.68
2022-09-24T03:37:45.406Z,72.99
2022-09-24T03:38:45.383Z,73.19
2022-09-24T03:39:45.374Z,73.49
2022-09-24T03:40:45.389Z,73.72
2022-09-24T03:41:45.362Z,74.33
2022-09-24T03:42:45.341Z,74.33
2022-09-24T03:43:45.334Z,73.93
2022-09-24T03:44:45.327Z,74.43
2022-09-24T03:45:45.327Z,74.13
2022-09-24T03:46:45.312Z,73.72
2022-09-24T03:47:45.290Z,73.63
2022-09-24T03:48:45.281Z,73.28
2022-09-24T03:49:45.275Z,73.63
2022-09-24T03:50:45.262Z,74.13
2022-09-24T03:51:45.253Z,74.13
2022-09-24T03:52:45.252Z,73.93
2022-09-24T03:53:45.224Z,73.49
2022-09-24T03:54:45.216Z,73.69
2022-09-24T03:55:45.206Z,73.69
2022-09-24T03:56:45.194Z,73.59
2022-09-24T03:57:45.192Z,73.69
2022-09-24T03:58:45.173Z,73.9
2022-09-24T03:59:45.161Z,74.13
2022-09-24T04:00:45.151Z,74.54
2022-09-24T04:01:45.161Z,74.43
2022-09-24T04:02:45.132Z,74.54
2022-09-24T04:03:45.131Z,74.33
2022-09-24T04:04:45.113Z,74.43
2022-09-24T04:05:45.097Z,74.84
2022-09-24T04:06:45.087Z,74.43
2022-09-24T04:07:45.082Z,75.18
2022-09-24T04:08:45.066Z,75.92
2022-09-24T04:09:45.053Z,76.23
2022-09-24T04:10:45.044Z,76.77
2022-09-24T04:11:45.049Z,77.17
2022-09-24T04:12:45.020Z,77.37
2022-09-24T04:13:45.012Z,77.17
2022-09-24T04:14:45.004Z,77.37
2022-09-24T04:15:44.997Z,77.37
2022-09-24T04:16:44.978Z,77.28
2022-09-24T04:17:44.968Z,77.37
2022-09-24T04:18:44.957Z,77.37
2022-09-24T04:19:44.950Z,77.78
2022-09-24T04:20:44.936Z,77.48
2022-09-24T04:21:44.926Z,77.24
2022-09-24T04:22:44.912Z,75.95
2022-09-24T04:23:44.909Z,75.45
2022-09-24T04:24:44.909Z,75.14
2022-09-24T04:25:44.883Z,75.68
2022-09-24T04:26:44.872Z,75.38
2022-09-24T04:27:44.876Z,75.68
2022-09-24T04:28:44.850Z,75.79
2022-09-24T04:29:44.843Z,75.58
2022-09-24T04:30:44.825Z,75.99
2022-09-24T04:31:44.826Z,75.48
2022-09-24T04:32:44.809Z,75.38
2022-09-24T04:33:44.800Z,75.55
2022-09-24T04:34:44.781Z,75.24
2022-09-24T04:35:44.773Z,74.94
2022-09-24T04:36:44.766Z,74.8
2022-09-24T04:37:44.753Z,74.6
2022-09-24T04:38:44.748Z,74.5
2022-09-24T04:39:44.733Z,74.5
2022-09-24T04:40:44.722Z,74.19
2022-09-24T04:41:44.707Z,74.3
2022-09-24T04:42:44.702Z,74.19
2022-09-24T04:43:44.691Z,74.3
2022-09-24T04:44:44.686Z,74.03
2022-09-24T04:45:44.669Z,74.5
2022-09-24T04:46:44.657Z,74.3
2022-09-24T04:47:44.644Z,73.99
2022-09-24T04:48:44.636Z,73.99
2022-09-24T04:49:44.628Z,74.4
2022-09-24T04:50:44.613Z,74.3
2022-09-24T04:51:44.617Z,73.99
2022-09-24T04:52:44.594Z,73.79
2022-09-24T04:53:44.581Z,73.79
2022-09-24T04:54:44.568Z,73.9
2022-09-24T04:55:44.561Z,73.46
2022-09-24T04:56:44.554Z,73.59
2022-09-24T04:57:44.537Z,73.9
2022-09-24T04:58:44.528Z,73.55
2022-09-24T04:59:44.517Z,73.46
2022-09-24T05:00:44.508Z,73.59
2022-09-24T05:01:44.524Z,73.66
2022-09-24T05:02:44.483Z,73.66
2022-09-24T05:03:44.472Z,73.35
2022-09-24T05:04:44.466Z,73.39
2022-09-24T05:05:44.457Z,73.39
2022-09-24T05:06:44.446Z,74.54
2022-09-24T05:07:44.433Z,74.33
2022-09-24T05:08:44.443Z,74.1
2022-09-24T05:09:44.420Z,73.83
2022-09-24T05:10:44.403Z,74.1
2022-09-24T05:11:44.391Z,74.33
2022-09-24T05:12:44.379Z,74.1
2022-09-24T05:13:44.372Z,73.59
2022-09-24T05:14:44.357Z,73.08
2022-09-24T05:15:44.345Z,73.05
2022-09-24T05:16:44.337Z,72.55
2022-09-24T05:17:44.325Z,72.24
2022-09-24T05:18:44.311Z,72.24
2022-09-24T05:19:44.305Z,72.58
2022-09-24T05:20:44.292Z,72.38
2022-09-24T05:21:44.283Z,72.58
2022-09-24T05:22:44.268Z,72.08
2022-09-24T05:23:44.263Z,72.88
2022-09-24T05:24:44.259Z,72.78
2022-09-24T05:25:44.243Z,72.68
2022-09-24T05:26:44.236Z,72.68
2022-09-24T05:27:44.224Z,72.38
2022-09-24T05:28:44.209Z,73.32
2022-09-24T05:29:44.198Z,72.88
2022-09-24T05:30:44.196Z,72.38
2022-09-24T05:31:44.180Z,72.38
2022-09-24T05:32:44.162Z,72.48
2022-09-24T05:33:44.154Z,73.28
2022-09-24T05:34:44.147Z,73.72
2022-09-24T05:35:44.140Z,73.93
2022-09-24T05:36:44.127Z,74.43
2022-09-24T05:37:44.116Z,74.03
2022-09-24T05:38:44.106Z,74.54
2022-09-24T05:39:44.094Z,73.9
2022-09-24T05:40:44.082Z,73.49
2022-09-24T05:41:44.075Z,73.99
2022-09-24T05:42:44.063Z,74.7
2022-09-24T05:43:44.050Z,74.3
2022-09-24T05:44:44.045Z,73.55
2022-09-24T05:45:44.031Z,73.25
2022-09-24T05:46:44.017Z,73.15
2022-09-24T05:47:44.021Z,72.95
2022-09-24T05:48:43.998Z,73.05
2022-09-24T05:49:43.997Z,73.35
2022-09-24T05:50:43.997Z,73.15
2022-09-24T05:51:43.978Z,72.95
2022-09-24T05:52:43.953Z,72.61
2022-09-24T05:53:43.956Z,72.61
2022-09-24T05:54:43.933Z,72.41
2022-09-24T05:55:43.961Z,72.41
2022-09-24T05:56:43.950Z,72.81
2022-09-24T05:57:43.940Z,72.95
2022-09-24T05:58:43.896Z,73.15
2022-09-24T05:59:43.877Z,72.85
2022-09-24T06:00:43.874Z,73.05
2022-09-24T06:01:43.857Z,73.55
2022-09-24T06:02:43.845Z,73.86
2022-09-24T06:03:43.837Z,73.86
2022-09-24T06:04:43.824Z,74.26
2022-09-24T06:05:43.816Z,73.75
2022-09-24T06:06:43.814Z,73.96
2022-09-24T06:07:43.797Z,74.37
2022-09-24T06:08:43.782Z,73.93
2022-09-24T06:09:43.776Z,73.42
2022-09-24T06:10:43.765Z,73.02
2022-09-24T06:11:43.752Z,72.81
2022-09-24T06:12:43.746Z,73.32
2022-09-24T06:13:43.754Z,73.22
2022-09-24T06:14:43.723Z,72.98
2022-09-24T06:15:43.714Z,72.78
2022-09-24T06:16:43.708Z,73.02
2022-09-24T06:17:43.688Z,72.88
2022-09-24T06:18:43.682Z,72.58
2022-09-24T06:19:43.672Z,72.58
2022-09-24T06:20:43.660Z,72.27
2022-09-24T06:21:43.648Z,72.04
2022-09-24T06:22:43.641Z,71.73
2022-09-24T06:23:43.628Z,71.5
2022-09-24T06:24:43.627Z,71.2
2022-09-24T06:25:43.604Z,71.06
2022-09-24T06:26:43.598Z,70.76
2022-09-24T06:27:43.635Z,71.17
2022-09-24T06:28:43.575Z,70.97
2022-09-24T06:29:43.568Z,70.66
2022-09-24T06:30:43.559Z,70.56
2022-09-24T06:31:43.569Z,71.47
2022-09-24T06:32:43.573Z,71.3
2022-09-24T06:33:43.539Z,71.3
2022-09-24T06:34:43.510Z,72.44
2022-09-24T06:35:43.502Z,72.85
2022-09-24T06:36:43.492Z,72.34
2022-09-24T06:37:43.482Z,72.14
2022-09-24T06:38:43.469Z,72.34
2022-09-24T06:39:43.457Z,72.51
2022-09-24T06:40:43.446Z,71.44
2022-09-24T06:41:43.439Z,72.71
2022-09-24T06:42:43.425Z,73.49
2022-09-24T06:43:43.414Z,73.28
2022-09-24T06:44:43.410Z,73.62
2022-09-24T06:45:43.397Z,73.69
2022-09-24T06:46:43.401Z,74.13
2022-09-24T06:47:43.373Z,74.6
2022-09-24T06:48:43.357Z,74.29
2022-09-24T06:49:43.354Z,73.55
2022-09-24T06:50:43.345Z,73.32
2022-09-24T06:51:43.328Z,73.01
2022-09-24T06:52:43.316Z,73.45
2022-09-24T06:53:43.311Z,73.35
2022-09-24T06:54:43.306Z,73.75
2022-09-24T06:55:43.311Z,73.85
2022-09-24T06:56:43.336Z,73.99
2022-09-24T06:57:43.268Z,74.69
2022-09-24T06:58:43.261Z,74.66
2022-09-24T06:59:43.257Z,74.56
2022-09-24T07:00:43.234Z,73.72
2022-09-24T07:01:43.225Z,73.11
2022-09-24T07:02:43.223Z,72.98
2022-09-24T07:03:43.218Z,72.07
2022-09-24T07:04:43.192Z,72.31
2022-09-24T07:05:43.182Z,72.41
2022-09-24T07:06:43.172Z,72.54
2022-09-24T07:07:43.178Z,73.49
2022-09-24T07:08:43.152Z,73.55
2022-09-24T07:09:43.144Z,72.61
2022-09-24T07:10:43.135Z,72.64
2022-09-24T07:11:43.128Z,73.49
2022-09-24T07:12:43.115Z,73.65
2022-09-24T07:13:43.116Z,72.81
2022-09-24T07:14:43.091Z,72.81
2022-09-24T07:15:43.078Z,72.07
2022-09-24T07:16:43.072Z,71.87
2022-09-24T07:17:43.072Z,71.97
2022-09-24T07:18:43.051Z,72
2022-09-24T07:19:43.066Z,72.75
2022-09-24T07:20:43.032Z,72.81
2022-09-24T07:21:43.023Z,73.05
2022-09-24T07:22:43.007Z,73.35
2022-09-24T07:23:42.996Z,72.64
2022-09-24T07:24:42.986Z,71.8
2022-09-24T07:25:42.977Z,72
2022-09-24T07:26:42.972Z,72.44
2022-09-24T07:27:42.955Z,72.64
2022-09-24T07:28:42.944Z,72
2022-09-24T07:29:42.937Z,71.91
2022-09-24T07:30:42.929Z,71.94
2022-09-24T07:31:42.917Z,73.38
2022-09-24T07:32:42.923Z,73.89
2022-09-24T07:33:42.926Z,73.58
2022-09-24T07:34:42.883Z,74.73
2022-09-24T07:35:42.874Z,75.04
2022-09-24T07:36:42.866Z,75.34
2022-09-24T07:37:42.852Z,75.44
2022-09-24T07:38:42.845Z,74.6
2022-09-24T07:39:42.835Z,74.49
2022-09-24T07:40:42.818Z,73.96
2022-09-24T07:41:42.811Z,72.95
2022-09-24T07:42:42.806Z,72.34
2022-09-24T07:43:42.866Z,72.14
2022-09-24T07:44:42.782Z,72.34
2022-09-24T07:45:42.773Z,72.14
2022-09-24T07:46:42.801Z,72.54
2022-09-24T07:47:42.784Z,73.75
2022-09-24T07:48:42.739Z,73.45
2022-09-24T07:49:42.730Z,74.09
2022-09-24T07:50:42.717Z,74.4
2022-09-24T07:51:42.707Z,74.49
2022-09-24T07:52:42.701Z,74.19
2022-09-24T07:53:42.683Z,74.16
2022-09-24T07:54:42.679Z,73.45
2022-09-24T07:55:42.665Z,73.58
2022-09-24T07:56:42.657Z,73.89
2022-09-24T07:57:42.645Z,73.99
2022-09-24T07:58:42.636Z,73.85
2022-09-24T07:59:42.624Z,73.96
2022-09-24T08:00:42.616Z,73.38
2022-09-24T08:01:42.608Z,72.78
2022-09-24T08:02:42.589Z,72.14
2022-09-24T08:03:42.581Z,71.84
2022-09-24T08:04:42.567Z,71.4
2022-09-24T08:05:42.561Z,71.1
2022-09-24T08:06:42.580Z,71.33
2022-09-24T08:07:42.540Z,71.53
2022-09-24T08:08:42.533Z,71.44
2022-09-24T08:09:42.517Z,71.73
2022-09-24T08:10:42.512Z,71.94
2022-09-24T08:11:42.496Z,71.91
2022-09-24T08:12:42.492Z,71.5
2022-09-24T08:13:42.483Z,71.3
2022-09-24T08:14:42.478Z,71.94
2022-09-24T08:15:42.468Z,71.73
2022-09-24T08:16:42.455Z,72.04
2022-09-24T08:17:42.440Z,72.34
2022-09-24T08:18:42.436Z,72.24
2022-09-24T08:19:42.432Z,72.04
2022-09-24T08:20:42.410Z,71.5
2022-09-24T08:21:42.393Z,71.4
2022-09-24T08:22:42.401Z,71
2022-09-24T08:23:42.377Z,70.79
2022-09-24T08:24:42.361Z,71.73
2022-09-24T08:25:42.352Z,71.5
2022-09-24T08:26:42.354Z,71.5
2022-09-24T08:27:42.327Z,71.5
2022-09-24T08:28:42.323Z,72.11
2022-09-24T08:29:42.313Z,71.26
2022-09-24T08:30:42.295Z,70.73
2022-09-24T08:31:42.284Z,70.32
2022-09-24T08:32:42.279Z,70.53
2022-09-24T08:33:42.274Z,70.53
2022-09-24T08:34:42.252Z,70.66
2022-09-24T08:35:42.245Z,71.06
2022-09-24T08:36:42.236Z,71.26
2022-09-24T08:37:42.221Z,70.63
2022-09-24T08:38:42.315Z,70.12
2022-09-24T08:39:42.221Z,70.63
2022-09-24T08:40:42.190Z,70.79
2022-09-24T08:41:42.183Z,71.5
2022-09-24T08:42:42.168Z,71.3
2022-09-24T08:43:42.180Z,72.31
2022-09-24T08:44:42.146Z,72.41
2022-09-24T08:45:42.134Z,72.64
2022-09-24T08:46:42.133Z,73.55
2022-09-24T08:47:42.118Z,73.52
2022-09-24T08:48:42.101Z,72.81
2022-09-24T08:49:42.091Z,71.97
2022-09-24T08:50:42.080Z,72.31
2022-09-24T08:51:42.096Z,72.51
2022-09-24T08:52:42.056Z,73.21
2022-09-24T08:53:42.091Z,72.97
2022-09-24T08:54:42.039Z,72.88
2022-09-24T08:55:42.023Z,72.24
2022-09-24T08:56:42.016Z,72.37
2022-09-24T08:57:42.001Z,71.77
2022-09-24T08:58:41.988Z,71.36
2022-09-24T08:59:41.984Z,71.53
2022-09-24T09:00:41.967Z,70.89
2022-09-24T09:01:41.954Z,71.23
2022-09-24T09:02:41.969Z,71.83
2022-09-24T09:03:41.937Z,71.63
2022-09-24T09:04:41.986Z,71.67
2022-09-24T09:05:41.926Z,71.33
2022-09-24T09:06:41.903Z,70.5
2022-09-24T09:07:41.899Z,70.39
2022-09-24T09:08:41.888Z,70.7
2022-09-24T09:09:41.871Z,70.89
2022-09-24T09:10:41.916Z,70.63
2022-09-24T09:11:41.852Z,71.09
2022-09-24T09:12:42.167Z,70.56
2022-09-24T09:13:41.837Z,70.43
2022-09-24T09:14:41.818Z,69.52
2022-09-24T09:15:41.808Z,69.52
2022-09-24T09:16:41.791Z,69.45
2022-09-24T09:17:42.347Z,70.79
2022-09-24T09:18:41.779Z,70.89
2022-09-24T09:19:41.766Z,70.29
2022-09-24T09:20:41.747Z,71
2022-09-24T09:21:41.738Z,70.89
2022-09-24T09:22:41.731Z,70.89
2022-09-24T09:23:41.717Z,71.06
2022-09-24T09:24:41.742Z,70.32
2022-09-24T09:25:41.707Z,69.49
2022-09-24T09:26:41.721Z,69.02
2022-09-24T09:27:41.673Z,70.76
2022-09-24T09:28:41.671Z,71.7
2022-09-24T09:29:41.657Z,71.06
2022-09-24T09:30:41.645Z,70.12
2022-09-24T09:31:41.651Z,70.23
2022-09-24T09:32:41.625Z,70.09
2022-09-24T09:33:41.618Z,69.56
2022-09-24T09:34:41.606Z,69.09
2022-09-24T09:35:41.599Z,69.82
2022-09-24T09:36:41.585Z,69.92
2022-09-24T09:37:41.576Z,69.92
2022-09-24T09:38:41.562Z,70.03
2022-09-24T09:39:41.557Z,69.79
2022-09-24T09:40:41.544Z,69.19
2022-09-24T09:41:41.542Z,69.59
2022-09-24T09:42:41.519Z,69.15
2022-09-24T09:43:41.534Z,69.89
2022-09-24T09:44:41.498Z,69.29
2022-09-24T09:45:41.485Z,69.39
2022-09-24T09:46:41.477Z,69.29
2022-09-24T09:47:41.465Z,68.76
2022-09-24T09:48:41.455Z,68.79
2022-09-24T09:49:41.443Z,69.69
2022-09-24T09:50:41.437Z,69.29
2022-09-24T09:51:41.424Z,69.39
2022-09-24T09:52:41.489Z,69.09
2022-09-24T09:53:41.428Z,70.43
2022-09-24T09:54:41.398Z,70.29
2022-09-24T09:55:41.382Z,70.39
2022-09-24T09:56:41.392Z,69.56
2022-09-24T09:57:41.384Z,69.46
2022-09-24T09:58:41.348Z,69.42
2022-09-24T09:59:41.399Z,69.12
2022-09-24T10:00:41.334Z,68.79
2022-09-24T10:01:41.318Z,68.69
2022-09-24T10:02:41.323Z,67.99
2022-09-24T10:03:41.308Z,68.19
2022-09-24T10:04:41.313Z,67.45
2022-09-24T10:05:41.279Z,68.69
2022-09-24T10:06:41.262Z,69.12
2022-09-24T10:07:41.251Z,69.32
2022-09-24T10:08:41.248Z,69.62
2022-09-24T10:09:41.233Z,68.82
2022-09-24T10:10:41.222Z,68.29
2022-09-24T10:11:41.210Z,67.38
2022-09-24T10:12:41.385Z,67.92
2022-09-24T10:13:41.227Z,68.52
2022-09-24T10:14:41.185Z,68.19
2022-09-24T10:15:41.197Z,67.58
2022-09-24T10:16:41.160Z,67.99
2022-09-24T10:17:41.152Z,67.76
2022-09-24T10:18:41.170Z,67.65
2022-09-24T10:19:41.140Z,67.55
2022-09-24T10:20:41.136Z,67.25
2022-09-24T10:21:41.126Z,67.96
2022-09-24T10:22:41.116Z,68.49
2022-09-24T10:23:41.100Z,69.53
2022-09-24T10:24:41.080Z,69.66
2022-09-24T10:25:41.062Z,70.5
2022-09-24T10:26:41.054Z,70.89
2022-09-24T10:27:41.046Z,70.7
2022-09-24T10:28:41.031Z,70.89
2022-09-24T10:29:41.023Z,71.56
2022-09-24T10:30:41.025Z,70.93
2022-09-24T10:31:41.011Z,70.36
2022-09-24T10:32:40.990Z,70.12
2022-09-24T10:33:41.003Z,69.82
2022-09-24T10:34:40.972Z,69.89
2022-09-24T10:35:40.993Z,69.49
2022-09-24T10:36:40.948Z,69.49
2022-09-24T10:37:40.939Z,68.49
2022-09-24T10:38:40.934Z,68.35
2022-09-24T10:39:40.920Z,67.96
2022-09-24T10:40:40.935Z,68.05
2022-09-24T10:41:40.931Z,68.15
2022-09-24T10:42:40.892Z,67.65
2022-09-24T10:43:40.878Z,67.82
2022-09-24T10:44:40.866Z,67.82
2022-09-24T10:45:40.855Z,67.72
2022-09-24T10:46:40.841Z,67.72
2022-09-24T10:47:40.832Z,68.59
2022-09-24T10:48:40.829Z,70.36
2022-09-24T10:49:40.824Z,70.79
2022-09-24T10:50:40.803Z,72.53
2022-09-24T10:51:40.793Z,72.33
2022-09-24T10:52:40.781Z,71.8
2022-09-24T10:53:40.775Z,71.26
2022-09-24T10:54:40.761Z,70.63
2022-09-24T10:55:40.748Z,69.53
2022-09-24T10:56:40.765Z,69.42
2022-09-24T10:57:40.735Z,68.49
2022-09-24T10:58:40.720Z,69.82
2022-09-24T10:59:40.737Z,70.46
2022-09-24T11:00:40.701Z,71.16
2022-09-24T11:01:40.695Z,71.36
2022-09-24T11:02:40.676Z,71.13
2022-09-24T11:03:40.669Z,70.12
2022-09-24T11:04:40.655Z,70.23
2022-09-24T11:05:40.644Z,71.9
2022-09-24T11:06:40.632Z,72.71
2022-09-24T11:07:40.629Z,72.71
2022-09-24T11:08:40.612Z,72.8
2022-09-24T11:09:40.600Z,73
2022-09-24T11:10:40.593Z,71.7
2022-09-24T11:11:40.586Z,70.43
2022-09-24T11:12:40.598Z,68.82
2022-09-24T11:13:40.567Z,67.88
2022-09-24T11:14:40.550Z,68.08
2022-09-24T11:15:40.568Z,67.85
2022-09-24T11:16:40.527Z,67.25
2022-09-24T11:17:40.521Z,67.32
2022-09-24T11:18:40.506Z,67.72
2022-09-24T11:19:40.495Z,67.85
2022-09-24T11:20:40.506Z,69.59
2022-09-24T11:21:40.490Z,69.62
2022-09-24T11:22:40.465Z,70.63
2022-09-24T11:23:40.461Z,69.29
2022-09-24T11:24:40.441Z,68.59
2022-09-24T11:25:40.437Z,68.69
2022-09-24T11:26:40.429Z,68.79
2022-09-24T11:27:40.552Z,69.85
2022-09-24T11:28:40.403Z,70.19
2022-09-24T11:29:40.395Z,70.29
2022-09-24T11:30:40.380Z,70.06
2022-09-24T11:31:40.374Z,69.22
2022-09-24T11:32:40.396Z,69.69
2022-09-24T11:33:40.345Z,68.29
2022-09-24T11:34:40.367Z,67.85
2022-09-24T11:35:40.338Z,67.25
2022-09-24T11:36:40.314Z,66.58
2022-09-24T11:37:40.342Z,67.52
2022-09-24T11:38:40.296Z,68.35
2022-09-24T11:39:40.305Z,68.55
2022-09-24T11:40:40.269Z,68.85
2022-09-24T11:41:40.264Z,69.85
2022-09-24T11:42:40.259Z,70.46
2022-09-24T11:43:40.261Z,68.82
2022-09-24T11:44:40.232Z,68.72
2022-09-24T11:45:40.227Z,68.29
2022-09-24T11:46:40.218Z,67.85
2022-09-24T11:47:40.259Z,67.32
2022-09-24T11:48:40.185Z,66.15
2022-09-24T11:49:40.178Z,65.58
2022-09-24T11:50:40.169Z,65.25
2022-09-24T11:51:40.163Z,65.01
2022-09-24T11:52:40.151Z,64.39
2022-09-24T11:53:40.136Z,63.95
2022-09-24T11:54:40.127Z,63.81
2022-09-24T11:55:40.115Z,64.15
2022-09-24T11:56:40.102Z,65.25
2022-09-24T11:57:40.097Z,65.42
2022-09-24T11:58:40.082Z,65.55
2022-09-24T11:59:40.072Z,65.15
2022-09-24T12:00:40.078Z,64.54
2022-09-24T12:01:40.063Z,64.62
2022-09-24T12:02:40.039Z,63.78
2022-09-24T12:03:40.026Z,63.39
2022-09-24T12:04:40.042Z,63.15
2022-09-24T12:05:40.015Z,62.75
2022-09-24T12:06:40.018Z,62.01
2022-09-24T12:07:39.986Z,63.31
2022-09-24T12:08:39.979Z,63.42
2022-09-24T12:09:39.970Z,63.11
2022-09-24T12:10:39.954Z,62.92
2022-09-24T12:11:39.994Z,63.61
2022-09-24T12:12:39.969Z,63.08
2022-09-24T12:13:39.930Z,62.08
2022-09-24T12:14:39.910Z,61.85
2022-09-24T12:15:39.906Z,61.55
2022-09-24T12:16:39.893Z,61.48
2022-09-24T12:17:39.902Z,62.21
2022-09-24T12:18:39.870Z,63.01
2022-09-24T12:19:39.879Z,63.64
2022-09-24T12:20:39.853Z,63.57
2022-09-24T12:21:39.839Z,63.64
2022-09-24T12:22:39.841Z,63.11
2022-09-24T12:23:39.821Z,62.81
2022-09-24T12:24:39.823Z,61.98
2022-09-24T12:25:39.811Z,62.41
2022-09-24T12:26:39.787Z,62.81
2022-09-24T12:27:39.806Z,63.75
2022-09-24T12:28:39.766Z,63.78
2022-09-24T12:29:39.754Z,64.71
2022-09-24T12:30:39.742Z,64.78
2022-09-24T12:31:39.742Z,65.31
2022-09-24T12:32:39.743Z,64.68
2022-09-24T12:33:39.713Z,64.37
2022-09-24T12:34:39.715Z,64.07
2022-09-24T12:35:39.698Z,63.14
2022-09-24T12:36:39.685Z,63.21
2022-09-24T12:37:39.775Z,62.18
2022-09-24T12:38:39.667Z,61.78
2022-09-24T12:39:39.647Z,61.68
2022-09-24T12:40:39.636Z,62.08
2022-09-24T12:41:39.640Z,62.41
2022-09-24T12:42:39.616Z,64.04
2022-09-24T12:43:39.617Z,63.78
2022-09-24T12:44:39.608Z,63.34
2022-09-24T12:45:39.587Z,65.24
2022-09-24T12:46:39.577Z,65.04
2022-09-24T12:47:39.597Z,64.61
2022-09-24T12:48:39.553Z,64.21
2022-09-24T12:49:39.539Z,63.37
2022-09-24T12:50:39.533Z,63.37
2022-09-24T12:51:39.520Z,62.84
2022-09-24T12:52:39.507Z,62.64
2022-09-24T12:53:41.971Z,62.94
2022-09-24T12:54:39.569Z,64.04